RU-0425 weather

CLOSED Kislovodsk Airport
Kislovodsk, Stavropol Krai, Russia

Public forecast

Using degrees Celsius for public forecast. Weather courtesy of forecast.io.

METAR (pilot weather report)

Closest report is Mineralnyye Vody Airport, 25.7 nm (47.6 km) NE. Retrieved 2019/08/17 23:30 UTC (10 minutes ago):

URMM 172330Z 27003MPS 4300 BR SCT056 20/19 Q1010 R12/090070 TEMPO 0300 FG OVC002 RMK QFE729/0972

TAF (pilot weather forecast)

Closest forecast is Mineralnyye Vody Airport, 25.7 nm (47.6 km) NE. Retrieved 2019/08/17 21:21 UTC (2 hours ago):

TAF URMM 172000Z 1721/1821 28003G08MPS 9999 BKN030 TX30/1812Z TN18/1803Z TEMPO 1721/1809 3100 -SHRA BR BKN011 BKN030CB